sensor_id;sensor_type;location;lat;lon;timestamp;P1;durP1;ratioP1;P2;durP2;ratioP2
920;SDS011;447;51.332;6.778;2022-08-06T00:00:24;2.70;;;1.43;;
920;SDS011;447;51.332;6.778;2022-08-06T00:02:51;1.70;;;1.33;;
920;SDS011;447;51.332;6.778;2022-08-06T00:05:17;4.30;;;1.30;;
920;SDS011;447;51.332;6.778;2022-08-06T00:07:45;1.80;;;1.40;;
920;SDS011;447;51.332;6.778;2022-08-06T00:10:15;3.70;;;1.43;;
920;SDS011;447;51.332;6.778;2022-08-06T00:12:46;2.93;;;1.40;;
920;SDS011;447;51.332;6.778;2022-08-06T00:15:12;2.40;;;1.47;;
920;SDS011;447;51.332;6.778;2022-08-06T00:17:43;2.17;;;1.30;;
920;SDS011;447;51.332;6.778;2022-08-06T00:20:13;2.60;;;1.60;;
920;SDS011;447;51.332;6.778;2022-08-06T00:22:42;1.87;;;1.30;;
920;SDS011;447;51.332;6.778;2022-08-06T00:25:13;2.60;;;1.50;;
920;SDS011;447;51.332;6.778;2022-08-06T00:27:42;2.03;;;1.23;;
920;SDS011;447;51.332;6.778;2022-08-06T00:30:13;3.23;;;1.30;;
920;SDS011;447;51.332;6.778;2022-08-06T00:32:41;3.53;;;1.60;;
920;SDS011;447;51.332;6.778;2022-08-06T00:35:08;3.13;;;1.77;;
920;SDS011;447;51.332;6.778;2022-08-06T00:37:39;1.70;;;1.00;;
920;SDS011;447;51.332;6.778;2022-08-06T00:40:10;1.67;;;1.30;;
920;SDS011;447;51.332;6.778;2022-08-06T00:42:39;2.10;;;1.47;;
920;SDS011;447;51.332;6.778;2022-08-06T00:45:05;1.70;;;1.50;;
920;SDS011;447;51.332;6.778;2022-08-06T00:47:33;1.43;;;1.23;;
920;SDS011;447;51.332;6.778;2022-08-06T00:49:59;2.37;;;1.43;;
920;SDS011;447;51.332;6.778;2022-08-06T00:52:25;3.50;;;1.50;;
920;SDS011;447;51.332;6.778;2022-08-06T00:54:51;1.37;;;1.10;;
920;SDS011;447;51.332;6.778;2022-08-06T00:57:17;1.97;;;1.20;;
920;SDS011;447;51.332;6.778;2022-08-06T00:59:45;1.53;;;1.30;;
920;SDS011;447;51.332;6.778;2022-08-06T01:02:14;2.20;;;1.40;;
920;SDS011;447;51.332;6.778;2022-08-06T01:04:42;1.43;;;1.20;;
920;SDS011;447;51.332;6.778;2022-08-06T01:07:10;1.83;;;1.30;;
920;SDS011;447;51.332;6.778;2022-08-06T01:09:39;2.77;;;1.30;;
920;SDS011;447;51.332;6.778;2022-08-06T01:12:05;2.87;;;1.47;;
920;SDS011;447;51.332;6.778;2022-08-06T01:14:38;3.03;;;1.50;;
920;SDS011;447;51.332;6.778;2022-08-06T01:17:11;3.90;;;1.60;;
920;SDS011;447;51.332;6.778;2022-08-06T01:23:21;2.50;;;1.30;;
920;SDS011;447;51.332;6.778;2022-08-06T01:28:43;2.73;;;1.37;;
920;SDS011;447;51.332;6.778;2022-08-06T01:31:49;2.80;;;1.50;;
920;SDS011;447;51.332;6.778;2022-08-06T01:34:38;2.90;;;1.43;;
920;SDS011;447;51.332;6.778;2022-08-06T01:37:41;2.07;;;1.47;;
920;SDS011;447;51.332;6.778;2022-08-06T01:40:23;3.87;;;1.60;;
920;SDS011;447;51.332;6.778;2022-08-06T01:42:59;2.20;;;1.30;;
920;SDS011;447;51.332;6.778;2022-08-06T01:45:32;5.50;;;2.43;;
920;SDS011;447;51.332;6.778;2022-08-06T01:48:02;3.20;;;1.40;;
920;SDS011;447;51.332;6.778;2022-08-06T01:50:39;2.93;;;1.37;;
920;SDS011;447;51.332;6.778;2022-08-06T01:53:23;1.67;;;1.30;;
920;SDS011;447;51.332;6.778;2022-08-06T01:56:00;2.53;;;1.60;;
920;SDS011;447;51.332;6.778;2022-08-06T01:58:33;4.97;;;1.67;;
920;SDS011;447;51.332;6.778;2022-08-06T02:01:06;1.67;;;1.10;;
920;SDS011;447;51.332;6.778;2022-08-06T02:03:43;2.23;;;1.73;;
920;SDS011;447;51.332;6.778;2022-08-06T02:06:12;2.00;;;1.33;;
920;SDS011;447;51.332;6.778;2022-08-06T02:08:46;3.90;;;1.80;;
920;SDS011;447;51.332;6.778;2022-08-06T02:11:16;1.87;;;1.33;;
920;SDS011;447;51.332;6.778;2022-08-06T02:13:45;2.77;;;1.50;;
920;SDS011;447;51.332;6.778;2022-08-06T02:16:14;1.80;;;1.20;;
920;SDS011;447;51.332;6.778;2022-08-06T02:18:47;1.83;;;1.10;;
920;SDS011;447;51.332;6.778;2022-08-06T02:21:16;2.57;;;1.57;;
920;SDS011;447;51.332;6.778;2022-08-06T02:23:48;3.80;;;1.20;;
920;SDS011;447;51.332;6.778;2022-08-06T02:26:16;3.60;;;1.43;;
920;SDS011;447;51.332;6.778;2022-08-06T02:28:46;3.63;;;1.40;;
920;SDS011;447;51.332;6.778;2022-08-06T02:31:14;1.57;;;0.97;;
920;SDS011;447;51.332;6.778;2022-08-06T02:33:40;1.67;;;1.07;;
920;SDS011;447;51.332;6.778;2022-08-06T02:39:09;2.10;;;1.20;;
920;SDS011;447;51.332;6.778;2022-08-06T02:41:43;2.07;;;1.27;;
920;SDS011;447;51.332;6.778;2022-08-06T02:47:30;4.20;;;1.10;;
920;SDS011;447;51.332;6.778;2022-08-06T02:50:08;2.33;;;1.60;;
920;SDS011;447;51.332;6.778;2022-08-06T02:52:42;1.30;;;1.10;;
920;SDS011;447;51.332;6.778;2022-08-06T02:55:15;3.43;;;1.47;;
920;SDS011;447;51.332;6.778;2022-08-06T02:57:51;1.60;;;1.20;;
920;SDS011;447;51.332;6.778;2022-08-06T03:00:22;3.43;;;1.60;;
920;SDS011;447;51.332;6.778;2022-08-06T03:02:52;2.10;;;1.30;;
920;SDS011;447;51.332;6.778;2022-08-06T03:05:27;1.90;;;1.20;;
920;SDS011;447;51.332;6.778;2022-08-06T03:07:54;2.33;;;1.43;;
920;SDS011;447;51.332;6.778;2022-08-06T03:10:23;3.43;;;1.30;;
920;SDS011;447;51.332;6.778;2022-08-06T03:12:52;3.00;;;1.40;;
920;SDS011;447;51.332;6.778;2022-08-06T03:15:21;1.80;;;0.93;;
920;SDS011;447;51.332;6.778;2022-08-06T03:17:49;5.40;;;1.40;;
920;SDS011;447;51.332;6.778;2022-08-06T03:20:19;1.70;;;1.30;;
920;SDS011;447;51.332;6.778;2022-08-06T03:22:49;2.20;;;1.30;;
920;SDS011;447;51.332;6.778;2022-08-06T03:25:17;1.93;;;1.73;;
920;SDS011;447;51.332;6.778;2022-08-06T03:27:49;2.27;;;1.30;;
920;SDS011;447;51.332;6.778;2022-08-06T03:30:23;2.30;;;1.20;;
920;SDS011;447;51.332;6.778;2022-08-06T03:32:52;2.23;;;1.40;;
920;SDS011;447;51.332;6.778;2022-08-06T03:35:24;2.83;;;1.30;;
920;SDS011;447;51.332;6.778;2022-08-06T03:37:51;1.50;;;1.20;;
920;SDS011;447;51.332;6.778;2022-08-06T03:40:21;1.97;;;1.30;;
920;SDS011;447;51.332;6.778;2022-08-06T03:42:48;1.67;;;1.40;;
920;SDS011;447;51.332;6.778;2022-08-06T03:45:19;2.03;;;1.17;;
920;SDS011;447;51.332;6.778;2022-08-06T03:47:54;2.20;;;1.30;;
920;SDS011;447;51.332;6.778;2022-08-06T03:50:24;1.33;;;1.23;;
920;SDS011;447;51.332;6.778;2022-08-06T03:52:54;4.03;;;1.17;;
920;SDS011;447;51.332;6.778;2022-08-06T03:55:25;2.40;;;1.47;;
920;SDS011;447;51.332;6.778;2022-08-06T03:57:55;1.53;;;1.03;;
920;SDS011;447;51.332;6.778;2022-08-06T04:00:25;1.40;;;1.30;;
920;SDS011;447;51.332;6.778;2022-08-06T04:02:57;2.00;;;1.20;;
920;SDS011;447;51.332;6.778;2022-08-06T04:05:31;2.07;;;1.30;;
920;SDS011;447;51.332;6.778;2022-08-06T04:08:04;1.30;;;1.20;;
920;SDS011;447;51.332;6.778;2022-08-06T04:10:36;2.43;;;1.27;;
920;SDS011;447;51.332;6.778;2022-08-06T04:13:08;1.57;;;1.03;;
920;SDS011;447;51.332;6.778;2022-08-06T04:15:39;1.93;;;1.20;;
920;SDS011;447;51.332;6.778;2022-08-06T04:18:11;3.17;;;1.33;;
920;SDS011;447;51.332;6.778;2022-08-06T04:20:40;1.90;;;1.00;;
920;SDS011;447;51.332;6.778;2022-08-06T04:23:11;1.87;;;1.47;;
920;SDS011;447;51.332;6.778;2022-08-06T04:25:41;2.67;;;1.30;;
920;SDS011;447;51.332;6.778;2022-08-06T04:28:12;1.37;;;1.10;;
920;SDS011;447;51.332;6.778;2022-08-06T04:30:40;2.00;;;1.20;;
920;SDS011;447;51.332;6.778;2022-08-06T04:33:09;1.53;;;1.20;;
920;SDS011;447;51.332;6.778;2022-08-06T04:35:41;2.50;;;1.07;;
920;SDS011;447;51.332;6.778;2022-08-06T04:38:10;3.60;;;1.50;;
920;SDS011;447;51.332;6.778;2022-08-06T04:40:37;1.80;;;1.27;;
920;SDS011;447;51.332;6.778;2022-08-06T04:43:04;2.90;;;1.30;;
920;SDS011;447;51.332;6.778;2022-08-06T04:45:34;1.83;;;1.47;;
920;SDS011;447;51.332;6.778;2022-08-06T04:48:03;2.33;;;1.33;;
920;SDS011;447;51.332;6.778;2022-08-06T04:50:31;3.10;;;1.60;;
920;SDS011;447;51.332;6.778;2022-08-06T04:53:06;1.43;;;1.13;;
920;SDS011;447;51.332;6.778;2022-08-06T04:55:32;1.90;;;1.40;;
920;SDS011;447;51.332;6.778;2022-08-06T04:57:59;1.60;;;1.20;;
920;SDS011;447;51.332;6.778;2022-08-06T05:00:26;2.27;;;1.20;;
920;SDS011;447;51.332;6.778;2022-08-06T05:02:54;1.90;;;1.30;;
920;SDS011;447;51.332;6.778;2022-08-06T05:05:23;1.80;;;1.03;;
920;SDS011;447;51.332;6.778;2022-08-06T05:07:54;1.90;;;1.23;;
920;SDS011;447;51.332;6.778;2022-08-06T05:10:22;2.70;;;1.30;;
920;SDS011;447;51.332;6.778;2022-08-06T05:13:02;1.27;;;1.17;;
920;SDS011;447;51.332;6.778;2022-08-06T05:15:34;1.60;;;1.20;;
920;SDS011;447;51.332;6.778;2022-08-06T05:18:10;1.10;;;1.00;;
920;SDS011;447;51.332;6.778;2022-08-06T05:20:43;1.67;;;1.17;;
920;SDS011;447;51.332;6.778;2022-08-06T05:23:24;3.30;;;1.20;;
920;SDS011;447;51.332;6.778;2022-08-06T05:25:52;1.77;;;1.13;;
920;SDS011;447;51.332;6.778;2022-08-06T05:28:24;1.93;;;1.00;;
920;SDS011;447;51.332;6.778;2022-08-06T05:30:50;2.60;;;1.30;;
920;SDS011;447;51.332;6.778;2022-08-06T05:33:29;1.80;;;1.33;;
920;SDS011;447;51.332;6.778;2022-08-06T05:35:58;1.40;;;1.30;;
920;SDS011;447;51.332;6.778;2022-08-06T05:38:25;1.40;;;1.23;;
920;SDS011;447;51.332;6.778;2022-08-06T05:40:55;2.07;;;1.30;;
920;SDS011;447;51.332;6.778;2022-08-06T05:43:22;1.30;;;1.17;;
920;SDS011;447;51.332;6.778;2022-08-06T05:45:49;3.13;;;1.43;;
920;SDS011;447;51.332;6.778;2022-08-06T05:48:20;1.70;;;1.23;;
920;SDS011;447;51.332;6.778;2022-08-06T05:50:52;2.53;;;1.30;;
920;SDS011;447;51.332;6.778;2022-08-06T05:53:24;3.20;;;1.53;;
920;SDS011;447;51.332;6.778;2022-08-06T05:55:57;3.03;;;1.40;;
920;SDS011;447;51.332;6.778;2022-08-06T05:58:33;1.97;;;1.17;;
920;SDS011;447;51.332;6.778;2022-08-06T06:01:07;1.57;;;1.30;;
920;SDS011;447;51.332;6.778;2022-08-06T06:03:34;2.13;;;1.30;;
920;SDS011;447;51.332;6.778;2022-08-06T06:06:03;2.13;;;1.43;;
920;SDS011;447;51.332;6.778;2022-08-06T06:08:29;2.30;;;1.70;;
920;SDS011;447;51.332;6.778;2022-08-06T06:10:56;3.33;;;1.40;;
920;SDS011;447;51.332;6.778;2022-08-06T06:13:23;2.43;;;1.20;;
920;SDS011;447;51.332;6.778;2022-08-06T06:15:57;2.80;;;1.40;;
920;SDS011;447;51.332;6.778;2022-08-06T06:18:31;1.67;;;1.47;;
920;SDS011;447;51.332;6.778;2022-08-06T06:29:27;2.43;;;1.17;;
920;SDS011;447;51.332;6.778;2022-08-06T06:34:48;4.20;;;1.80;;
920;SDS011;447;51.332;6.778;2022-08-06T06:45:51;3.60;;;1.87;;
920;SDS011;447;51.332;6.778;2022-08-06T06:48:37;1.60;;;1.47;;
920;SDS011;447;51.332;6.778;2022-08-06T06:51:14;2.67;;;1.73;;
920;SDS011;447;51.332;6.778;2022-08-06T06:53:55;1.90;;;1.50;;
920;SDS011;447;51.332;6.778;2022-08-06T06:56:25;1.40;;;1.23;;
920;SDS011;447;51.332;6.778;2022-08-06T07:01:31;2.00;;;1.23;;
920;SDS011;447;51.332;6.778;2022-08-06T07:04:04;2.80;;;1.43;;
920;SDS011;447;51.332;6.778;2022-08-06T07:06:36;2.67;;;1.40;;
920;SDS011;447;51.332;6.778;2022-08-06T07:09:06;2.47;;;1.40;;
920;SDS011;447;51.332;6.778;2022-08-06T07:11:34;3.10;;;1.17;;
920;SDS011;447;51.332;6.778;2022-08-06T07:14:01;1.70;;;1.30;;
920;SDS011;447;51.332;6.778;2022-08-06T07:16:27;1.43;;;1.20;;
920;SDS011;447;51.332;6.778;2022-08-06T07:18:57;3.53;;;1.37;;
920;SDS011;447;51.332;6.778;2022-08-06T07:21:26;6.37;;;1.53;;
920;SDS011;447;51.332;6.778;2022-08-06T07:23:53;2.00;;;1.23;;
920;SDS011;447;51.332;6.778;2022-08-06T07:26:24;3.90;;;1.30;;
920;SDS011;447;51.332;6.778;2022-08-06T07:28:54;1.77;;;1.10;;
920;SDS011;447;51.332;6.778;2022-08-06T07:31:24;3.47;;;1.50;;
920;SDS011;447;51.332;6.778;2022-08-06T07:33:52;4.80;;;1.33;;
920;SDS011;447;51.332;6.778;2022-08-06T07:36:47;2.10;;;1.43;;
920;SDS011;447;51.332;6.778;2022-08-06T07:39:22;1.20;;;1.10;;
920;SDS011;447;51.332;6.778;2022-08-06T07:42:11;3.63;;;1.20;;
920;SDS011;447;51.332;6.778;2022-08-06T07:44:47;2.93;;;1.57;;
920;SDS011;447;51.332;6.778;2022-08-06T07:47:18;2.27;;;1.50;;
920;SDS011;447;51.332;6.778;2022-08-06T07:49:57;2.87;;;1.57;;
920;SDS011;447;51.332;6.778;2022-08-06T07:52:25;1.90;;;1.27;;
920;SDS011;447;51.332;6.778;2022-08-06T07:54:54;3.50;;;1.27;;
920;SDS011;447;51.332;6.778;2022-08-06T07:57:49;1.43;;;1.10;;
920;SDS011;447;51.332;6.778;2022-08-06T08:00:17;2.50;;;1.37;;
920;SDS011;447;51.332;6.778;2022-08-06T08:02:44;4.90;;;1.53;;
920;SDS011;447;51.332;6.778;2022-08-06T08:05:33;2.90;;;1.07;;
920;SDS011;447;51.332;6.778;2022-08-06T08:08:19;1.30;;;1.00;;
920;SDS011;447;51.332;6.778;2022-08-06T08:10:49;2.37;;;1.00;;
920;SDS011;447;51.332;6.778;2022-08-06T08:13:18;2.00;;;1.10;;
920;SDS011;447;51.332;6.778;2022-08-06T08:15:46;1.87;;;1.10;;
920;SDS011;447;51.332;6.778;2022-08-06T08:18:13;2.20;;;1.20;;
920;SDS011;447;51.332;6.778;2022-08-06T08:20:42;1.07;;;0.97;;
920;SDS011;447;51.332;6.778;2022-08-06T08:23:11;1.40;;;0.97;;
920;SDS011;447;51.332;6.778;2022-08-06T08:25:38;2.00;;;1.10;;
920;SDS011;447;51.332;6.778;2022-08-06T08:28:08;3.87;;;1.30;;
920;SDS011;447;51.332;6.778;2022-08-06T08:30:41;4.80;;;1.27;;
920;SDS011;447;51.332;6.778;2022-08-06T08:33:11;1.47;;;1.20;;
920;SDS011;447;51.332;6.778;2022-08-06T08:35:40;3.47;;;1.13;;
920;SDS011;447;51.332;6.778;2022-08-06T08:38:07;2.13;;;0.93;;
920;SDS011;447;51.332;6.778;2022-08-06T08:40:35;3.00;;;1.03;;
920;SDS011;447;51.332;6.778;2022-08-06T08:43:03;2.60;;;0.90;;
920;SDS011;447;51.332;6.778;2022-08-06T08:45:32;1.10;;;0.83;;
920;SDS011;447;51.332;6.778;2022-08-06T08:48:02;3.13;;;1.00;;
920;SDS011;447;51.332;6.778;2022-08-06T08:50:34;1.03;;;0.80;;
920;SDS011;447;51.332;6.778;2022-08-06T08:53:12;2.40;;;1.20;;
920;SDS011;447;51.332;6.778;2022-08-06T08:55:42;1.53;;;1.27;;
920;SDS011;447;51.332;6.778;2022-08-06T08:58:08;0.90;;;0.80;;
920;SDS011;447;51.332;6.778;2022-08-06T09:00:37;1.03;;;0.87;;
920;SDS011;447;51.332;6.778;2022-08-06T09:03:04;3.07;;;0.90;;
920;SDS011;447;51.332;6.778;2022-08-06T09:05:31;0.93;;;0.77;;
920;SDS011;447;51.332;6.778;2022-08-06T09:07:59;1.53;;;0.83;;
920;SDS011;447;51.332;6.778;2022-08-06T09:10:30;1.87;;;0.80;;
920;SDS011;447;51.332;6.778;2022-08-06T09:12:56;0.90;;;0.70;;
920;SDS011;447;51.332;6.778;2022-08-06T09:15:41;1.63;;;0.80;;
920;SDS011;447;51.332;6.778;2022-08-06T09:18:07;1.10;;;0.90;;
920;SDS011;447;51.332;6.778;2022-08-06T09:20:33;1.80;;;0.87;;
920;SDS011;447;51.332;6.778;2022-08-06T09:23:01;1.13;;;0.90;;
920;SDS011;447;51.332;6.778;2022-08-06T09:25:37;1.27;;;0.80;;
920;SDS011;447;51.332;6.778;2022-08-06T09:28:26;2.33;;;0.90;;
920;SDS011;447;51.332;6.778;2022-08-06T09:31:02;1.07;;;0.90;;
920;SDS011;447;51.332;6.778;2022-08-06T09:33:36;1.10;;;0.70;;
920;SDS011;447;51.332;6.778;2022-08-06T09:36:08;0.80;;;0.80;;
920;SDS011;447;51.332;6.778;2022-08-06T09:38:51;1.30;;;0.90;;
920;SDS011;447;51.332;6.778;2022-08-06T09:41:24;1.10;;;0.90;;
920;SDS011;447;51.332;6.778;2022-08-06T09:43:54;0.90;;;0.70;;
920;SDS011;447;51.332;6.778;2022-08-06T09:46:46;1.07;;;0.73;;
920;SDS011;447;51.332;6.778;2022-08-06T09:49:16;1.67;;;0.80;;
920;SDS011;447;51.332;6.778;2022-08-06T09:51:44;0.77;;;0.77;;
920;SDS011;447;51.332;6.778;2022-08-06T09:54:10;1.33;;;0.70;;
920;SDS011;447;51.332;6.778;2022-08-06T09:56:48;1.40;;;0.90;;
920;SDS011;447;51.332;6.778;2022-08-06T09:59:24;2.30;;;1.00;;
920;SDS011;447;51.332;6.778;2022-08-06T10:01:55;1.20;;;0.80;;
920;SDS011;447;51.332;6.778;2022-08-06T10:04:25;1.87;;;0.80;;
920;SDS011;447;51.332;6.778;2022-08-06T10:06:56;2.30;;;1.03;;
920;SDS011;447;51.332;6.778;2022-08-06T10:09:27;0.80;;;0.70;;
920;SDS011;447;51.332;6.778;2022-08-06T10:11:55;0.97;;;0.60;;
920;SDS011;447;51.332;6.778;2022-08-06T10:14:24;1.47;;;0.83;;
920;SDS011;447;51.332;6.778;2022-08-06T10:17:08;1.17;;;0.73;;
920;SDS011;447;51.332;6.778;2022-08-06T10:19:39;0.70;;;0.70;;
920;SDS011;447;51.332;6.778;2022-08-06T10:22:13;1.10;;;0.80;;
920;SDS011;447;51.332;6.778;2022-08-06T10:24:44;1.20;;;0.83;;
920;SDS011;447;51.332;6.778;2022-08-06T10:27:23;0.80;;;0.73;;
920;SDS011;447;51.332;6.778;2022-08-06T10:29:54;0.90;;;0.73;;
920;SDS011;447;51.332;6.778;2022-08-06T10:35:07;5.53;;;1.10;;
920;SDS011;447;51.332;6.778;2022-08-06T10:37:38;1.20;;;0.70;;
920;SDS011;447;51.332;6.778;2022-08-06T10:40:26;0.90;;;0.63;;
920;SDS011;447;51.332;6.778;2022-08-06T10:42:55;0.87;;;0.60;;
920;SDS011;447;51.332;6.778;2022-08-06T10:45:25;1.23;;;0.97;;
920;SDS011;447;51.332;6.778;2022-08-06T10:47:54;0.93;;;0.80;;
920;SDS011;447;51.332;6.778;2022-08-06T10:50:21;1.37;;;0.80;;
920;SDS011;447;51.332;6.778;2022-08-06T10:52:47;1.63;;;0.90;;
920;SDS011;447;51.332;6.778;2022-08-06T10:55:18;0.80;;;0.70;;
920;SDS011;447;51.332;6.778;2022-08-06T10:57:46;1.30;;;0.77;;
920;SDS011;447;51.332;6.778;2022-08-06T11:00:14;1.07;;;0.80;;
920;SDS011;447;51.332;6.778;2022-08-06T11:06:13;1.33;;;0.80;;
920;SDS011;447;51.332;6.778;2022-08-06T11:09:39;2.60;;;0.83;;
920;SDS011;447;51.332;6.778;2022-08-06T11:14:30;1.33;;;0.80;;
920;SDS011;447;51.332;6.778;2022-08-06T11:17:02;1.63;;;0.97;;
920;SDS011;447;51.332;6.778;2022-08-06T11:19:38;0.87;;;0.80;;
920;SDS011;447;51.332;6.778;2022-08-06T11:22:31;1.30;;;0.90;;
920;SDS011;447;51.332;6.778;2022-08-06T11:25:00;1.20;;;0.70;;
920;SDS011;447;51.332;6.778;2022-08-06T11:33:07;0.77;;;0.70;;
920;SDS011;447;51.332;6.778;2022-08-06T11:38:08;1.03;;;0.90;;
920;SDS011;447;51.332;6.778;2022-08-06T11:41:00;0.90;;;0.67;;
920;SDS011;447;51.332;6.778;2022-08-06T12:02:09;1.00;;;0.90;;
920;SDS011;447;51.332;6.778;2022-08-06T12:04:40;0.90;;;0.70;;
920;SDS011;447;51.332;6.778;2022-08-06T12:15:29;1.90;;;0.97;;
920;SDS011;447;51.332;6.778;2022-08-06T12:20:31;1.30;;;0.90;;
920;SDS011;447;51.332;6.778;2022-08-06T12:23:13;2.50;;;0.93;;
920;SDS011;447;51.332;6.778;2022-08-06T12:25:41;0.80;;;0.63;;
920;SDS011;447;51.332;6.778;2022-08-06T12:28:11;0.80;;;0.73;;
920;SDS011;447;51.332;6.778;2022-08-06T12:33:09;0.90;;;0.70;;
920;SDS011;447;51.332;6.778;2022-08-06T12:35:36;1.27;;;0.90;;
920;SDS011;447;51.332;6.778;2022-08-06T12:38:15;0.83;;;0.80;;
920;SDS011;447;51.332;6.778;2022-08-06T12:40:51;0.90;;;0.80;;
920;SDS011;447;51.332;6.778;2022-08-06T12:43:30;1.17;;;0.70;;
920;SDS011;447;51.332;6.778;2022-08-06T12:46:01;1.23;;;0.80;;
920;SDS011;447;51.332;6.778;2022-08-06T12:48:28;1.27;;;1.07;;
920;SDS011;447;51.332;6.778;2022-08-06T12:51:04;1.00;;;0.80;;
920;SDS011;447;51.332;6.778;2022-08-06T12:53:31;1.40;;;0.80;;
920;SDS011;447;51.332;6.778;2022-08-06T12:55:57;1.23;;;0.90;;
920;SDS011;447;51.332;6.778;2022-08-06T12:58:42;1.07;;;0.70;;
920;SDS011;447;51.332;6.778;2022-08-06T13:01:16;1.20;;;1.00;;
920;SDS011;447;51.332;6.778;2022-08-06T13:03:49;1.00;;;0.90;;
920;SDS011;447;51.332;6.778;2022-08-06T13:06:18;1.10;;;0.87;;
920;SDS011;447;51.332;6.778;2022-08-06T13:08:53;0.83;;;0.80;;
920;SDS011;447;51.332;6.778;2022-08-06T13:11:27;1.20;;;0.80;;
920;SDS011;447;51.332;6.778;2022-08-06T13:13:57;1.13;;;0.80;;
920;SDS011;447;51.332;6.778;2022-08-06T13:16:41;1.17;;;0.80;;
920;SDS011;447;51.332;6.778;2022-08-06T13:19:15;1.63;;;0.90;;
920;SDS011;447;51.332;6.778;2022-08-06T13:21:56;1.00;;;0.87;;
920;SDS011;447;51.332;6.778;2022-08-06T13:24:27;1.50;;;0.90;;
920;SDS011;447;51.332;6.778;2022-08-06T13:26:55;1.33;;;0.90;;
920;SDS011;447;51.332;6.778;2022-08-06T13:29:25;1.20;;;0.90;;
920;SDS011;447;51.332;6.778;2022-08-06T13:31:58;2.90;;;1.07;;
920;SDS011;447;51.332;6.778;2022-08-06T13:34:47;2.70;;;1.33;;
920;SDS011;447;51.332;6.778;2022-08-06T13:37:15;1.60;;;1.07;;
920;SDS011;447;51.332;6.778;2022-08-06T13:39:51;1.10;;;1.00;;
920;SDS011;447;51.332;6.778;2022-08-06T13:42:22;1.50;;;1.10;;
920;SDS011;447;51.332;6.778;2022-08-06T13:44:51;1.50;;;1.17;;
920;SDS011;447;51.332;6.778;2022-08-06T13:47:28;2.73;;;1.03;;
920;SDS011;447;51.332;6.778;2022-08-06T13:50:01;0.80;;;0.80;;
920;SDS011;447;51.332;6.778;2022-08-06T13:52:27;1.17;;;0.93;;
920;SDS011;447;51.332;6.778;2022-08-06T13:54:56;3.30;;;1.00;;
920;SDS011;447;51.332;6.778;2022-08-06T13:57:22;1.10;;;1.00;;
920;SDS011;447;51.332;6.778;2022-08-06T13:59:49;0.90;;;0.80;;
920;SDS011;447;51.332;6.778;2022-08-06T14:02:14;1.23;;;1.00;;
920;SDS011;447;51.332;6.778;2022-08-06T14:04:42;2.60;;;1.00;;
920;SDS011;447;51.332;6.778;2022-08-06T14:07:11;1.83;;;1.07;;
920;SDS011;447;51.332;6.778;2022-08-06T14:09:39;1.27;;;0.83;;
920;SDS011;447;51.332;6.778;2022-08-06T14:12:08;1.60;;;0.97;;
920;SDS011;447;51.332;6.778;2022-08-06T14:14:35;0.90;;;0.80;;
920;SDS011;447;51.332;6.778;2022-08-06T14:17:01;1.70;;;0.63;;
920;SDS011;447;51.332;6.778;2022-08-06T14:19:28;2.13;;;0.97;;
920;SDS011;447;51.332;6.778;2022-08-06T14:21:58;2.83;;;0.90;;
920;SDS011;447;51.332;6.778;2022-08-06T14:24:29;1.77;;;0.87;;
920;SDS011;447;51.332;6.778;2022-08-06T14:26:55;2.73;;;0.90;;
920;SDS011;447;51.332;6.778;2022-08-06T14:29:22;2.33;;;0.90;;
920;SDS011;447;51.332;6.778;2022-08-06T14:31:50;0.80;;;0.80;;
920;SDS011;447;51.332;6.778;2022-08-06T14:34:18;0.80;;;0.70;;
920;SDS011;447;51.332;6.778;2022-08-06T14:36:47;1.40;;;1.00;;
920;SDS011;447;51.332;6.778;2022-08-06T14:39:24;1.10;;;1.00;;
920;SDS011;447;51.332;6.778;2022-08-06T14:41:52;1.77;;;1.20;;
920;SDS011;447;51.332;6.778;2022-08-06T14:44:37;1.20;;;0.90;;
920;SDS011;447;51.332;6.778;2022-08-06T14:47:24;1.03;;;0.93;;
920;SDS011;447;51.332;6.778;2022-08-06T14:49:53;2.60;;;1.10;;
920;SDS011;447;51.332;6.778;2022-08-06T14:52:19;2.90;;;1.20;;
920;SDS011;447;51.332;6.778;2022-08-06T14:54:47;2.00;;;0.90;;
920;SDS011;447;51.332;6.778;2022-08-06T14:57:16;1.20;;;0.90;;
920;SDS011;447;51.332;6.778;2022-08-06T14:59:43;1.10;;;0.90;;
920;SDS011;447;51.332;6.778;2022-08-06T15:02:15;1.27;;;0.90;;
920;SDS011;447;51.332;6.778;2022-08-06T15:04:46;2.30;;;0.90;;
920;SDS011;447;51.332;6.778;2022-08-06T15:07:12;1.80;;;0.80;;
920;SDS011;447;51.332;6.778;2022-08-06T15:09:39;1.57;;;0.80;;
920;SDS011;447;51.332;6.778;2022-08-06T15:12:07;1.80;;;1.00;;
920;SDS011;447;51.332;6.778;2022-08-06T15:14:33;1.00;;;0.80;;
920;SDS011;447;51.332;6.778;2022-08-06T15:17:01;1.17;;;1.07;;
920;SDS011;447;51.332;6.778;2022-08-06T15:19:27;2.00;;;0.90;;
920;SDS011;447;51.332;6.778;2022-08-06T15:21:55;1.30;;;1.10;;
920;SDS011;447;51.332;6.778;2022-08-06T15:24:21;3.40;;;0.83;;
920;SDS011;447;51.332;6.778;2022-08-06T15:26:50;0.80;;;0.70;;
920;SDS011;447;51.332;6.778;2022-08-06T15:29:20;1.13;;;1.00;;
920;SDS011;447;51.332;6.778;2022-08-06T15:31:50;2.00;;;1.10;;
920;SDS011;447;51.332;6.778;2022-08-06T15:34:16;1.70;;;0.90;;
920;SDS011;447;51.332;6.778;2022-08-06T15:36:42;1.10;;;1.00;;
920;SDS011;447;51.332;6.778;2022-08-06T15:39:13;1.13;;;0.83;;
920;SDS011;447;51.332;6.778;2022-08-06T15:41:39;1.30;;;1.10;;
920;SDS011;447;51.332;6.778;2022-08-06T15:44:05;1.30;;;1.10;;
920;SDS011;447;51.332;6.778;2022-08-06T15:46:36;1.27;;;0.90;;
920;SDS011;447;51.332;6.778;2022-08-06T15:49:02;1.50;;;1.00;;
920;SDS011;447;51.332;6.778;2022-08-06T15:51:28;0.93;;;0.83;;
920;SDS011;447;51.332;6.778;2022-08-06T15:53:54;0.93;;;0.90;;
920;SDS011;447;51.332;6.778;2022-08-06T15:56:28;1.67;;;0.80;;
920;SDS011;447;51.332;6.778;2022-08-06T15:58:58;1.17;;;0.90;;
920;SDS011;447;51.332;6.778;2022-08-06T16:01:26;1.53;;;0.90;;
920;SDS011;447;51.332;6.778;2022-08-06T16:03:57;0.90;;;0.80;;
920;SDS011;447;51.332;6.778;2022-08-06T16:06:28;1.10;;;0.90;;
920;SDS011;447;51.332;6.778;2022-08-06T16:08:54;0.93;;;0.70;;
920;SDS011;447;51.332;6.778;2022-08-06T16:11:22;2.50;;;0.90;;
920;SDS011;447;51.332;6.778;2022-08-06T16:13:53;2.07;;;1.10;;
920;SDS011;447;51.332;6.778;2022-08-06T16:16:24;0.80;;;0.77;;
920;SDS011;447;51.332;6.778;2022-08-06T16:18:54;1.27;;;0.80;;
920;SDS011;447;51.332;6.778;2022-08-06T16:21:23;1.23;;;0.90;;
920;SDS011;447;51.332;6.778;2022-08-06T16:23:51;1.00;;;0.90;;
920;SDS011;447;51.332;6.778;2022-08-06T16:26:17;1.27;;;1.00;;
920;SDS011;447;51.332;6.778;2022-08-06T16:28:46;1.10;;;0.90;;
920;SDS011;447;51.332;6.778;2022-08-06T16:31:12;0.90;;;0.80;;
920;SDS011;447;51.332;6.778;2022-08-06T16:33:43;1.53;;;0.97;;
920;SDS011;447;51.332;6.778;2022-08-06T16:36:12;1.47;;;0.93;;
920;SDS011;447;51.332;6.778;2022-08-06T16:38:40;1.07;;;0.80;;
920;SDS011;447;51.332;6.778;2022-08-06T16:41:06;1.30;;;1.07;;
920;SDS011;447;51.332;6.778;2022-08-06T16:43:32;1.30;;;1.17;;
920;SDS011;447;51.332;6.778;2022-08-06T16:46:04;1.13;;;1.03;;
920;SDS011;447;51.332;6.778;2022-08-06T16:48:30;1.47;;;0.97;;
920;SDS011;447;51.332;6.778;2022-08-06T16:50:56;2.43;;;1.10;;
920;SDS011;447;51.332;6.778;2022-08-06T16:53:22;0.80;;;0.80;;
920;SDS011;447;51.332;6.778;2022-08-06T16:55:48;0.80;;;0.80;;
920;SDS011;447;51.332;6.778;2022-08-06T16:58:16;1.43;;;1.03;;
920;SDS011;447;51.332;6.778;2022-08-06T17:00:43;1.37;;;1.00;;
920;SDS011;447;51.332;6.778;2022-08-06T17:03:09;2.13;;;1.10;;
920;SDS011;447;51.332;6.778;2022-08-06T17:05:35;2.47;;;1.07;;
920;SDS011;447;51.332;6.778;2022-08-06T17:08:03;0.97;;;0.80;;
920;SDS011;447;51.332;6.778;2022-08-06T17:10:31;1.30;;;0.97;;
920;SDS011;447;51.332;6.778;2022-08-06T17:13:00;2.07;;;1.10;;
920;SDS011;447;51.332;6.778;2022-08-06T17:15:28;1.30;;;1.00;;
920;SDS011;447;51.332;6.778;2022-08-06T17:17:57;1.00;;;0.90;;
920;SDS011;447;51.332;6.778;2022-08-06T17:20:23;1.57;;;1.10;;
920;SDS011;447;51.332;6.778;2022-08-06T17:22:53;1.10;;;1.00;;
920;SDS011;447;51.332;6.778;2022-08-06T17:25:21;1.13;;;0.80;;
920;SDS011;447;51.332;6.778;2022-08-06T17:27:47;1.20;;;0.93;;
920;SDS011;447;51.332;6.778;2022-08-06T17:30:14;1.33;;;1.03;;
920;SDS011;447;51.332;6.778;2022-08-06T17:32:43;1.80;;;0.90;;